Time;durP1;ratioP1;P1;durP2;ratioP2;P2;SDS_P1;SDS_P2;PMS_P1;PMS_P2;Temp;Humidity;BMP_temperature;BMP_pressure;BME280_temperature;BME280_humidity;BME280_pressure;Samples;Min_cycle;Max_cycle;Signal;HPM_P1;HPM_P2
2024/04/21 00:02:21;;;;;;;12.18;6.38;;;;;;;7.45;67.65;99108.31;5416432;26;20445;-45
2024/04/21 00:04:47;;;;;;;4.72;2.60;;;;;;;7.45;67.40;99115.34;5387769;26;20322;-45
2024/04/21 00:07:13;;;;;;;12.32;9.10;;;;;;;7.34;67.36;99114.72;5418934;26;20004;-45
2024/04/21 00:09:38;;;;;;;13.27;4.43;;;;;;;7.24;67.80;99114.09;5417148;26;20015;-45
2024/04/21 00:12:05;;;;;;;15.32;8.75;;;;;;;7.27;68.38;99110.34;5387519;26;20000;-45
2024/04/21 00:14:30;;;;;;;11.25;5.57;;;;;;;7.36;68.51;99110.16;5418840;26;19999;-45
2024/04/21 00:16:56;;;;;;;15.98;8.75;;;;;;;7.42;68.47;99103.44;5417046;26;20004;-45
2024/04/21 00:19:22;;;;;;;8.57;4.65;;;;;;;7.38;68.45;99097.75;5416966;26;20444;-45
2024/04/21 00:21:47;;;;;;;10.70;3.22;;;;;;;7.48;68.88;99097.53;5417258;26;20010;-45
2024/04/21 00:24:13;;;;;;;63.42;56.90;;;;;;;7.52;68.56;99098.00;5416899;26;20004;-45
2024/04/21 00:26:39;;;;;;;6.20;2.88;;;;;;;7.59;68.89;99096.34;5416855;26;20080;-45
2024/04/21 00:29:04;;;;;;;13.40;7.13;;;;;;;7.62;68.56;99093.38;5387282;26;20000;-45
2024/04/21 00:31:30;;;;;;;15.65;6.60;;;;;;;7.60;68.65;99096.16;5416885;26;20010;-45
2024/04/21 00:33:56;;;;;;;6.55;3.10;;;;;;;7.64;68.96;99096.63;5416739;26;20003;-46
2024/04/21 00:36:22;;;;;;;26.48;21.73;;;;;;;7.71;69.07;99091.56;5418422;26;20003;-46
2024/04/21 00:38:48;;;;;;;11.77;5.68;;;;;;;7.82;68.54;99087.75;5417076;26;20073;-45
2024/04/21 00:41:14;;;;;;;14.60;8.93;;;;;;;7.84;68.51;99096.22;5416954;26;20027;-45
2024/04/21 00:43:39;;;;;;;13.27;6.13;;;;;;;7.81;68.71;99092.16;5417122;26;20086;-45
2024/04/21 00:46:06;;;;;;;18.35;16.02;;;;;;;7.84;69.01;99097.03;5418750;26;20031;-45
2024/04/21 00:48:33;;;;;;;13.60;4.18;;;;;;;7.76;68.25;99100.50;5416642;26;20007;-45
2024/04/21 00:51:01;;;;;;;13.30;6.55;;;;;;;7.63;68.24;99095.03;5418302;26;20028;-45
2024/04/21 00:53:28;;;;;;;12.48;4.75;;;;;;;7.53;68.04;99110.91;5418165;26;20010;-45
2024/04/21 00:55:57;;;;;;;10.95;4.57;;;;;;;7.45;68.28;99102.28;5416628;26;20009;-45
2024/04/21 00:58:24;;;;;;;10.50;5.65;;;;;;;7.42;68.47;99113.88;5416591;26;20072;-45
2024/04/21 01:00:50;;;;;;;18.02;6.88;;;;;;;7.46;68.71;99104.72;5418204;26;20003;-45
2024/04/21 01:03:16;;;;;;;12.82;5.65;;;;;;;7.57;68.49;99098.31;5416320;26;19999;-45
2024/04/21 01:05:42;;;;;;;11.82;6.22;;;;;;;7.56;68.51;99107.94;5418170;26;20018;-45
2024/04/21 01:08:08;;;;;;;12.85;5.25;;;;;;;7.54;68.39;99109.09;5416343;26;20000;-45
2024/04/21 01:10:34;;;;;;;26.17;19.00;;;;;;;7.53;68.43;99105.69;5417986;26;20007;-45
2024/04/21 01:13:00;;;;;;;9.20;4.82;;;;;;;7.57;68.76;99101.75;5417636;26;19999;-45
2024/04/21 01:15:25;;;;;;;17.27;7.45;;;;;;;7.54;68.85;99114.31;5416278;26;20003;-45
2024/04/21 01:17:51;;;;;;;13.45;6.30;;;;;;;7.41;67.94;99107.03;5416259;26;20453;-45
2024/04/21 01:20:17;;;;;;;10.63;5.00;;;;;;;7.26;67.99;99112.13;5417921;26;19999;-45
2024/04/21 01:22:49;;;;;;;18.85;10.93;;;;;;;7.18;68.53;99110.38;5416307;26;20003;-45
2024/04/21 01:25:15;;;;;;;13.90;7.45;;;;;;;7.16;68.58;99101.06;5417730;26;20035;-45
2024/04/21 01:27:41;;;;;;;41.05;34.75;;;;;;;7.06;68.05;99096.03;5417686;26;20508;-45
2024/04/21 01:30:07;;;;;;;18.45;12.07;;;;;;;6.97;68.84;99091.84;5416015;26;20087;-45
2024/04/21 01:32:33;;;;;;;10.05;5.65;;;;;;;7.05;69.42;99093.63;5416095;26;20027;-45
2024/04/21 01:34:59;;;;;;;13.07;9.90;;;;;;;7.13;69.75;99098.81;5417686;26;20010;-45
2024/04/21 01:37:24;;;;;;;8.10;4.55;;;;;;;7.29;69.96;99098.75;5415605;26;20073;-45
2024/04/21 01:39:50;;;;;;;47.00;42.22;;;;;;;7.39;69.31;99093.34;5417579;26;20019;-45
2024/04/21 01:42:16;;;;;;;11.95;5.38;;;;;;;7.43;69.30;99097.25;5417582;26;20445;-45
2024/04/21 01:44:43;;;;;;;14.70;5.72;;;;;;;7.36;68.96;99101.50;5417599;26;20331;-45
2024/04/21 01:47:09;;;;;;;57.22;51.08;;;;;;;7.26;68.91;99090.44;5415724;26;19999;-45
2024/04/21 01:49:34;;;;;;;17.15;8.48;;;;;;;7.17;69.30;99090.47;5417836;26;20003;-45
2024/04/21 01:52:00;;;;;;;19.73;8.77;;;;;;;7.19;69.79;99098.13;5417694;26;20446;-45
2024/04/21 01:54:26;;;;;;;17.98;8.40;;;;;;;7.25;69.81;99086.22;5416087;26;20094;-45
2024/04/21 01:56:51;;;;;;;18.98;14.00;;;;;;;7.35;70.10;99090.25;5416138;26;20395;-45
2024/04/21 01:59:17;;;;;;;21.42;17.60;;;;;;;7.40;69.91;99087.94;5417722;26;20026;-45
2024/04/21 02:01:43;;;;;;;46.67;41.95;;;;;;;7.33;70.18;99087.00;5417605;26;20072;-45
2024/04/21 02:04:08;;;;;;;14.95;8.93;;;;;;;7.29;70.68;99088.31;5417580;26;20323;-45
2024/04/21 02:06:35;;;;;;;13.05;7.88;;;;;;;7.26;70.92;99088.63;5415760;26;20011;-45
2024/04/21 02:09:01;;;;;;;47.17;41.63;;;;;;;7.26;71.09;99088.63;5415883;26;20004;-45
2024/04/21 02:11:27;;;;;;;13.85;11.35;;;;;;;7.23;71.52;99085.56;5417555;26;20003;-45
2024/04/21 02:13:52;;;;;;;12.48;6.30;;;;;;;7.22;71.52;99087.34;5415730;26;20068;-45
2024/04/21 02:16:18;;;;;;;8.52;5.45;;;;;;;7.21;71.30;99072.69;5415754;26;20010;-45
2024/04/21 02:18:44;;;;;;;14.07;9.68;;;;;;;7.22;71.42;99083.94;5417507;26;20345;-45
2024/04/21 02:21:09;;;;;;;18.20;7.93;;;;;;;7.18;71.31;99080.84;5385972;26;19999;-45
2024/04/21 02:23:35;;;;;;;14.32;10.18;;;;;;;7.23;71.71;99077.75;5414636;26;20034;-45
2024/04/21 02:26:02;;;;;;;11.70;9.30;;;;;;;7.27;71.92;99085.06;5417273;26;20014;-45
2024/04/21 02:28:28;;;;;;;10.32;6.95;;;;;;;7.33;72.36;99073.94;5417308;26;20081;-45
2024/04/21 02:30:54;;;;;;;13.93;9.85;;;;;;;7.43;72.54;99072.94;5415772;26;20004;-45
2024/04/21 02:33:21;;;;;;;78.78;71.05;;;;;;;7.50;72.89;99079.09;5417352;26;20469;-45
2024/04/21 02:35:47;;;;;;;26.67;23.55;;;;;;;7.55;72.90;99066.34;5415295;26;20434;-45
2024/04/21 02:38:13;;;;;;;27.67;21.70;;;;;;;7.62;73.06;99067.25;5417107;26;20010;-45
2024/04/21 02:40:38;;;;;;;13.85;8.25;;;;;;;7.69;72.73;99060.38;5415094;26;20010;-45
2024/04/21 02:43:04;;;;;;;16.92;12.10;;;;;;;7.72;72.78;99064.44;5414999;26;20036;-45
2024/04/21 02:45:30;;;;;;;21.15;15.65;;;;;;;7.80;73.30;99062.56;5416826;26;19999;-45
2024/04/21 02:47:56;;;;;;;10.18;6.50;;;;;;;7.78;72.66;99061.94;5385359;26;20065;-45
2024/04/21 02:50:22;;;;;;;20.35;12.05;;;;;;;7.75;72.36;99066.72;5414895;26;20026;-45
2024/04/21 02:52:48;;;;;;;10.52;7.45;;;;;;;7.65;71.81;99058.28;5416796;26;20011;-45
2024/04/21 02:55:13;;;;;;;10.07;5.70;;;;;;;7.51;71.36;99059.84;5356117;26;20005;-45
2024/04/21 02:57:39;;;;;;;36.85;32.88;;;;;;;7.41;71.46;99067.88;5416639;26;20004;-45
2024/04/21 03:00:06;;;;;;;33.70;30.13;;;;;;;7.32;71.65;99061.03;5416553;26;20475;-45
2024/04/21 03:02:31;;;;;;;22.77;13.50;;;;;;;7.25;71.62;99068.75;5414803;26;20084;-45
2024/04/21 03:04:57;;;;;;;10.93;6.65;;;;;;;7.20;71.62;99073.66;5416595;26;20004;-45
2024/04/21 03:07:23;;;;;;;19.95;17.85;;;;;;;7.12;71.78;99071.91;5414557;26;20434;-45
2024/04/21 03:09:48;;;;;;;15.05;11.80;;;;;;;7.06;71.63;99074.34;5414681;26;20003;-45
2024/04/21 03:12:14;;;;;;;28.38;25.45;;;;;;;7.02;72.15;99070.44;5416288;26;20349;-45
2024/04/21 03:14:40;;;;;;;43.53;39.17;;;;;;;6.99;72.21;99069.81;5416439;26;20023;-45
2024/04/21 03:17:06;;;;;;;12.82;7.03;;;;;;;7.09;72.52;99071.44;5416138;26;20445;-45
2024/04/21 03:19:32;;;;;;;20.17;16.70;;;;;;;7.11;72.18;99069.47;5385308;26;20071;-45
2024/04/21 03:21:59;;;;;;;54.25;47.20;;;;;;;7.07;72.11;99063.75;5416166;26;20037;-45
2024/04/21 03:24:25;;;;;;;20.92;13.98;;;;;;;7.14;72.42;99066.50;5416143;26;20458;-45
2024/04/21 03:26:51;;;;;;;31.27;23.35;;;;;;;7.24;72.32;99067.09;5416017;26;20003;-45
2024/04/21 03:29:16;;;;;;;27.35;20.38;;;;;;;7.29;71.95;99069.22;5414184;26;20014;-45
2024/04/21 03:31:43;;;;;;;52.05;46.65;;;;;;;7.34;71.91;99062.50;5414161;26;20442;-45
2024/04/21 03:34:09;;;;;;;17.10;11.98;;;;;;;7.39;71.49;99060.19;5414107;26;20413;-45
2024/04/21 03:36:35;;;;;;;17.88;12.27;;;;;;;7.48;71.60;99057.53;5425907;26;20003;-45
2024/04/21 03:39:02;;;;;;;43.30;35.67;;;;;;;7.50;71.53;99058.19;5417848;26;20018;-45
2024/04/21 03:41:27;;;;;;;19.65;12.63;;;;;;;7.56;71.90;99057.50;5419306;26;20004;-45
2024/04/21 03:43:53;;;;;;;9.82;5.80;;;;;;;7.66;71.70;99057.28;5419260;26;20018;-45
2024/04/21 03:46:19;;;;;;;11.75;6.15;;;;;;;7.74;71.16;99055.44;5417385;26;20086;-45
2024/04/21 03:48:45;;;;;;;15.40;9.90;;;;;;;7.82;70.75;99053.78;5417505;26;20018;-45
2024/04/21 03:51:11;;;;;;;14.73;5.20;;;;;;;7.92;70.54;99043.91;5419076;26;20007;-45
2024/04/21 03:53:37;;;;;;;19.75;7.50;;;;;;;8.02;70.41;99041.88;5419223;26;20352;-45
2024/04/21 03:56:03;;;;;;;10.73;5.55;;;;;;;8.09;70.01;99052.41;5419076;26;20000;-45
2024/04/21 03:58:28;;;;;;;10.13;4.00;;;;;;;8.10;69.66;99044.41;5419127;26;20046;-45
2024/04/21 04:00:54;;;;;;;27.33;14.77;;;;;;;8.09;69.37;99042.81;5419060;26;20010;-45
2024/04/21 04:03:19;;;;;;;27.38;21.85;;;;;;;8.08;69.19;99049.00;5418986;26;20014;-46
2024/04/21 04:05:46;;;;;;;14.27;5.38;;;;;;;8.09;69.12;99042.81;5418899;26;20000;-45
2024/04/21 04:08:12;;;;;;;13.25;7.20;;;;;;;8.12;68.90;99034.59;5419040;26;20380;-45
2024/04/21 04:10:43;;;;;;;15.10;5.05;;;;;;;8.20;68.53;99039.75;5417084;26;20448;-45
2024/04/21 04:13:09;;;;;;;13.10;4.20;;;;;;;8.25;68.30;99041.03;5417038;26;20004;-45
2024/04/21 04:15:36;;;;;;;32.10;26.30;;;;;;;8.28;68.09;99040.69;5418916;26;20042;-45
2024/04/21 04:18:02;;;;;;;15.27;6.75;;;;;;;8.23;67.80;99041.22;5418740;26;20027;-45
2024/04/21 04:20:28;;;;;;;62.65;49.70;;;;;;;8.24;67.43;99036.81;5417137;26;20000;-45
2024/04/21 04:22:53;;;;;;;34.30;30.65;;;;;;;8.25;67.78;99039.25;5418800;26;20019;-45
2024/04/21 04:25:19;;;;;;;12.23;5.57;;;;;;;8.27;67.52;99039.88;5418659;26;20004;-45
2024/04/21 04:27:45;;;;;;;9.35;4.85;;;;;;;8.28;67.50;99045.91;5418751;26;20031;-45
2024/04/21 04:30:11;;;;;;;12.48;3.85;;;;;;;8.37;67.34;99040.44;5418639;26;20016;-45
2024/04/21 04:32:37;;;;;;;15.40;5.43;;;;;;;8.36;67.25;99038.81;5417029;26;20380;-45
2024/04/21 04:35:05;;;;;;;9.05;4.57;;;;;;;8.40;67.07;99050.53;5418408;26;20351;-45
2024/04/21 04:37:32;;;;;;;14.43;3.85;;;;;;;8.36;66.58;99048.47;5418285;26;19999;-45
2024/04/21 04:39:57;;;;;;;12.25;6.20;;;;;;;8.30;66.82;99043.94;5418632;26;20034;-45
2024/04/21 04:42:23;;;;;;;10.40;4.65;;;;;;;8.35;67.41;99046.81;5418561;26;20007;-45
2024/04/21 04:44:49;;;;;;;13.07;5.10;;;;;;;8.43;67.35;99045.97;5416825;26;20015;-45
2024/04/21 04:47:15;;;;;;;10.02;4.20;;;;;;;8.44;67.01;99039.75;5417606;26;20016;-45
2024/04/21 04:49:40;;;;;;;15.43;7.78;;;;;;;8.42;66.96;99039.94;5416654;26;20278;-45
2024/04/21 04:52:06;;;;;;;11.00;4.90;;;;;;;8.36;66.58;99040.63;5416571;26;20011;-45
2024/04/21 04:54:32;;;;;;;23.90;18.70;;;;;;;8.32;66.73;99042.75;5418207;26;20395;-45
2024/04/21 04:56:58;;;;;;;8.00;4.78;;;;;;;8.33;66.53;99046.19;5386917;26;20007;-45
2024/04/21 04:59:24;;;;;;;8.88;3.83;;;;;;;8.23;66.83;99035.16;5418332;26;20019;-45
2024/04/21 05:01:49;;;;;;;11.40;4.20;;;;;;;8.19;66.73;99038.16;5418192;26;20080;-45
2024/04/21 05:04:15;;;;;;;13.40;8.15;;;;;;;8.17;66.44;99042.72;5416486;26;20065;-45
2024/04/21 05:06:41;;;;;;;10.85;4.93;;;;;;;8.16;66.67;99041.09;5416341;26;20014;-45
2024/04/21 05:09:07;;;;;;;17.40;5.10;;;;;;;8.29;67.44;99045.75;5416378;26;20510;-46
2024/04/21 05:11:33;;;;;;;20.85;7.68;;;;;;;8.53;67.20;99049.97;5416296;26;20003;-45
2024/04/21 05:13:58;;;;;;;10.23;3.75;;;;;;;8.78;66.91;99050.53;5417977;26;20080;-45
2024/04/21 05:16:24;;;;;;;9.07;4.25;;;;;;;8.96;66.60;99047.56;5417989;26;20014;-45
2024/04/21 05:18:50;;;;;;;21.17;14.85;;;;;;;9.13;65.87;99055.22;5416420;26;20011;-45
2024/04/21 05:21:16;;;;;;;10.60;4.18;;;;;;;9.14;64.84;99052.44;5417942;26;20004;-45
2024/04/21 05:23:42;;;;;;;10.63;4.63;;;;;;;9.09;64.72;99057.38;5417996;26;20003;-45
2024/04/21 05:26:07;;;;;;;15.60;4.40;;;;;;;9.20;64.70;99056.13;5417891;26;20010;-45
2024/04/21 05:28:33;;;;;;;40.08;30.73;;;;;;;9.36;64.26;99058.56;5417864;26;20406;-45
2024/04/21 05:30:59;;;;;;;15.48;10.05;;;;;;;9.36;63.31;99069.03;5416026;26;20076;-45
2024/04/21 05:33:26;;;;;;;11.75;5.13;;;;;;;9.38;63.87;99064.41;5417713;26;20014;-45
2024/04/21 05:35:51;;;;;;;10.45;6.80;;;;;;;9.33;63.06;99068.56;5417667;26;20442;-45
2024/04/21 05:38:17;;;;;;;8.43;3.97;;;;;;;9.34;63.64;99064.97;5386172;26;20049;-46
2024/04/21 05:40:43;;;;;;;17.00;13.25;;;;;;;9.47;63.66;99064.31;5417766;26;20000;-45
2024/04/21 05:43:09;;;;;;;9.55;4.57;;;;;;;9.48;62.85;99063.34;5415804;26;20039;-45
2024/04/21 05:45:34;;;;;;;12.45;3.63;;;;;;;9.48;63.11;99065.94;5417622;26;19999;-45
2024/04/21 05:48:00;;;;;;;41.67;32.00;;;;;;;9.40;62.79;99065.06;5417740;26;20003;-46
2024/04/21 05:50:26;;;;;;;14.60;8.40;;;;;;;9.45;62.33;99063.69;5415709;26;20000;-45
2024/04/21 05:52:52;;;;;;;9.77;3.83;;;;;;;9.49;62.10;99060.50;5417512;26;20007;-46
2024/04/21 05:55:18;;;;;;;8.95;3.63;;;;;;;9.48;62.02;99060.72;5417327;26;20000;-45
2024/04/21 05:57:44;;;;;;;7.20;3.55;;;;;;;9.47;61.70;99064.31;5415440;26;20004;-45
2024/04/21 06:00:10;;;;;;;12.52;4.30;;;;;;;9.47;62.08;99057.25;5385004;26;20003;-45
2024/04/21 06:02:36;;;;;;;11.05;4.63;;;;;;;9.51;61.45;99058.50;5417399;26;20072;-45
2024/04/21 06:05:03;;;;;;;9.95;4.97;;;;;;;9.50;61.59;99056.09;5417302;26;20011;-45
2024/04/21 06:07:29;;;;;;;11.35;4.53;;;;;;;9.54;62.00;99052.91;5417372;26;20004;-46
2024/04/21 06:09:54;;;;;;;10.82;6.78;;;;;;;9.56;61.97;99056.16;5417240;26;20072;-46
2024/04/21 06:12:22;;;;;;;16.20;6.15;;;;;;;9.64;61.77;99057.88;5415445;26;20000;-46
2024/04/21 06:14:48;;;;;;;11.18;4.15;;;;;;;9.85;61.83;99053.66;5417137;26;20075;-45
2024/04/21 06:17:14;;;;;;;8.70;4.68;;;;;;;9.87;60.23;99062.94;5415348;26;20004;-46
2024/04/21 06:19:39;;;;;;;8.95;4.43;;;;;;;9.71;60.43;99056.13;5417238;26;20453;-45
2024/04/21 06:22:05;;;;;;;9.15;3.33;;;;;;;9.80;60.40;99057.63;5415340;26;20014;-45
2024/04/21 06:24:31;;;;;;;17.50;10.38;;;;;;;9.91;60.15;99055.53;5385959;26;20345;-46
2024/04/21 06:26:56;;;;;;;7.63;3.30;;;;;;;9.99;60.14;99058.81;5416980;26;20014;-45
2024/04/21 06:29:22;;;;;;;11.23;4.05;;;;;;;10.24;59.55;99058.47;5416980;26;20022;-45
2024/04/21 06:31:48;;;;;;;13.25;7.65;;;;;;;10.36;58.96;99062.22;5416829;26;20018;-45
2024/04/21 06:34:13;;;;;;;8.48;3.92;;;;;;;10.13;58.18;99062.38;5416859;26;20000;-45
2024/04/21 06:36:39;;;;;;;8.82;3.70;;;;;;;10.00;58.94;99055.22;5416654;26;20080;-45
2024/04/21 06:39:05;;;;;;;6.57;3.70;;;;;;;10.17;59.22;99066.25;5415159;26;19999;-45
2024/04/21 06:41:30;;;;;;;11.32;7.88;;;;;;;10.19;58.77;99055.56;5416771;26;20004;-46
2024/04/21 06:43:56;;;;;;;14.38;6.65;;;;;;;10.01;58.69;99063.88;5385754;26;20014;-45
2024/04/21 06:46:22;;;;;;;7.38;4.35;;;;;;;10.03;59.76;99067.13;5415275;26;19999;-45
2024/04/21 06:48:47;;;;;;;10.00;4.53;;;;;;;10.24;59.07;99060.25;5417091;26;20010;-45
2024/04/21 06:51:13;;;;;;;12.60;5.95;;;;;;;10.43;58.92;99061.47;5416839;26;20045;-46
2024/04/21 06:53:39;;;;;;;404.50;219.10;;;;;;;10.49;58.64;99058.88;5416986;26;19999;-45
2024/04/21 06:56:05;;;;;;;39.33;26.17;;;;;;;10.57;58.55;99056.13;5415107;26;20007;-45
2024/04/21 06:58:30;;;;;;;19.25;10.45;;;;;;;10.73;58.05;99064.72;5416906;26;19999;-46
2024/04/21 07:00:56;;;;;;;24.45;17.33;;;;;;;10.81;57.62;99053.25;5416946;26;20011;-45
2024/04/21 07:03:22;;;;;;;13.98;9.05;;;;;;;11.02;57.49;99052.34;5416847;26;20007;-45
2024/04/21 07:05:47;;;;;;;14.20;9.05;;;;;;;11.22;56.30;99049.81;5416664;26;20322;-45
2024/04/21 07:08:13;;;;;;;17.58;10.25;;;;;;;11.23;55.44;99051.44;5415019;26;19999;-45
2024/04/21 07:10:41;;;;;;;17.00;13.77;;;;;;;11.20;55.24;99050.00;5414403;26;20043;-45
2024/04/21 07:13:07;;;;;;;12.00;8.98;;;;;;;11.49;54.72;99041.03;5416616;26;20003;-45
2024/04/21 07:15:32;;;;;;;11.25;5.30;;;;;;;11.65;54.71;99037.25;5414885;26;20012;-45
2024/04/21 07:17:58;;;;;;;13.75;8.18;;;;;;;11.85;53.70;99046.97;5416866;26;20007;-45
2024/04/21 07:20:24;;;;;;;9.38;4.90;;;;;;;12.02;53.73;99039.56;5414870;26;20022;-45
2024/04/21 07:22:49;;;;;;;11.80;9.73;;;;;;;12.31;53.06;99048.88;5416542;26;20039;-45
2024/04/21 07:25:17;;;;;;;8.70;5.28;;;;;;;12.57;52.21;99048.88;5414825;26;20453;-45
2024/04/21 07:27:42;;;;;;;8.50;4.15;;;;;;;12.71;50.75;99049.66;5416568;26;20008;-45
2024/04/21 07:30:09;;;;;;;12.20;7.30;;;;;;;12.78;51.14;99044.41;5416347;26;20076;-45
2024/04/21 07:32:35;;;;;;;9.35;5.53;;;;;;;12.62;50.46;99034.31;5385129;26;20000;-45
2024/04/21 07:35:00;;;;;;;9.35;4.05;;;;;;;12.43;51.29;99033.31;5416328;26;20007;-45
2024/04/21 07:37:26;;;;;;;8.52;3.03;;;;;;;12.13;51.31;99034.53;5416034;26;20015;-45
2024/04/21 07:39:52;;;;;;;46.85;35.47;;;;;;;11.96;51.85;99035.91;5385125;26;20014;-46
2024/04/21 07:42:18;;;;;;;18.13;11.25;;;;;;;11.94;52.22;99032.69;5416236;26;20073;-45
2024/04/21 07:44:44;;;;;;;8.35;5.35;;;;;;;12.19;52.54;99033.72;5414118;26;20542;-45
2024/04/21 07:47:10;;;;;;;11.40;7.32;;;;;;;12.89;51.06;99029.78;5415859;26;20010;-46
2024/04/21 07:49:35;;;;;;;7.55;5.53;;;;;;;13.61;48.68;99029.75;5415685;26;20076;-45
2024/04/21 07:52:01;;;;;;;11.45;5.32;;;;;;;13.81;47.26;99037.53;5413846;26;20015;-45
2024/04/21 07:54:27;;;;;;;22.38;18.90;;;;;;;13.98;47.63;99034.19;5413893;26;19999;-45
2024/04/21 07:56:52;;;;;;;10.73;6.70;;;;;;;14.29;46.52;99037.00;5415376;26;20010;-45
2024/04/21 07:59:18;;;;;;;12.43;7.05;;;;;;;14.23;45.76;99019.38;5415651;26;20031;-46
2024/04/21 08:01:44;;;;;;;13.98;10.75;;;;;;;13.90;46.33;99026.50;5413805;26;20075;-46
2024/04/21 08:04:09;;;;;;;7.43;4.65;;;;;;;13.66;46.90;99033.38;5415391;26;20361;-45
2024/04/21 08:06:35;;;;;;;13.77;6.85;;;;;;;13.65;47.52;99031.75;5413689;26;20039;-45
2024/04/21 08:09:01;;;;;;;36.60;31.65;;;;;;;13.46;47.86;99024.72;5415306;26;20014;-45
2024/04/21 08:11:26;;;;;;;10.63;6.95;;;;;;;13.35;48.14;99019.09;5415267;26;20016;-45
2024/04/21 08:13:52;;;;;;;9.52;5.00;;;;;;;13.37;47.97;99019.69;5415159;26;19999;-45
2024/04/21 08:16:18;;;;;;;10.80;7.03;;;;;;;13.25;47.96;99016.09;5415204;26;20011;-45
2024/04/21 08:18:43;;;;;;;8.60;5.15;;;;;;;13.28;47.75;99009.56;5415287;26;20014;-45
2024/04/21 08:21:09;;;;;;;23.80;16.00;;;;;;;13.58;47.90;99015.13;5413492;26;20015;-45
2024/04/21 08:23:35;;;;;;;17.08;11.50;;;;;;;13.73;47.37;99017.50;5416513;26;20011;-45
2024/04/21 08:26:03;;;;;;;11.27;5.72;;;;;;;14.18;46.69;99020.00;5387512;26;20014;-45
2024/04/21 08:28:29;;;;;;;8.30;3.75;;;;;;;15.69;44.00;99016.97;5418740;26;20335;-45
2024/04/21 08:30:56;;;;;;;9.60;5.50;;;;;;;16.59;41.39;99010.69;5418678;26;20039;-45
2024/04/21 08:33:22;;;;;;;11.77;10.15;;;;;;;16.89;40.60;99010.56;5418632;26;20008;-45
2024/04/21 08:35:52;;;;;;;11.07;4.40;;;;;;;18.12;39.06;99004.06;5416910;26;20000;-45
2024/04/21 08:38:18;;;;;;;10.98;8.15;;;;;;;19.59;35.75;98992.13;5418583;26;20010;-45
2024/04/21 08:40:47;;;;;;;9.45;5.05;;;;;;;20.49;34.34;98995.00;5416684;26;20333;-46
2024/04/21 08:43:16;;;;;;;10.85;7.10;;;;;;;21.86;32.84;98995.75;5418465;26;19999;-44
2024/04/21 08:45:43;;;;;;;9.75;4.30;;;;;;;23.08;30.39;98992.09;5387728;26;20014;-44
2024/04/21 08:48:08;;;;;;;12.70;6.05;;;;;;;23.22;29.36;98991.47;5416646;26;20015;-44
2024/04/21 08:50:35;;;;;;;32.47;22.48;;;;;;;22.89;29.38;98991.84;5418598;26;20004;-44
2024/04/21 08:53:00;;;;;;;156.80;140.10;;;;;;;21.99;30.33;98989.88;5418331;26;19999;-43
2024/04/21 08:55:29;;;;;;;42.17;35.65;;;;;;;22.10;30.36;98980.78;5418271;26;20048;-44
2024/04/21 08:57:55;;;;;;;22.52;15.88;;;;;;;23.26;29.11;98982.63;5416473;26;20080;-44
2024/04/21 09:00:22;;;;;;;112.07;100.78;;;;;;;24.64;27.78;98972.66;5418178;26;20004;-44
2024/04/21 09:02:48;;;;;;;519.72;469.40;;;;;;;26.18;25.53;98965.13;5418151;26;20004;-44
2024/04/21 09:05:14;;;;;;;296.60;262.60;;;;;;;26.31;24.57;98966.22;5416317;26;20446;-44
2024/04/21 09:07:41;;;;;;;99.53;83.93;;;;;;;25.07;25.30;98956.56;5387009;26;20003;-45
2024/04/21 09:10:07;;;;;;;44.95;34.85;;;;;;;23.37;27.33;98967.28;5416295;26;20000;-44
2024/04/21 09:12:33;;;;;;;32.10;24.05;;;;;;;21.91;29.15;98977.03;5418074;26;20018;-44
2024/04/21 09:14:59;;;;;;;14.52;7.85;;;;;;;20.92;30.56;98969.88;5416327;26;20019;-44
2024/04/21 09:17:28;;;;;;;15.32;10.35;;;;;;;20.41;31.22;98974.94;5418062;26;20004;-44
2024/04/21 09:19:53;;;;;;;12.88;7.68;;;;;;;20.11;31.42;98981.69;5416239;26;20000;-44
2024/04/21 09:22:20;;;;;;;13.00;6.18;;;;;;;19.51;32.52;98980.06;5417874;26;20072;-44
2024/04/21 09:24:46;;;;;;;13.85;9.05;;;;;;;19.03;33.25;98979.81;5417955;26;20018;-44
2024/04/21 09:27:11;;;;;;;8.27;5.68;;;;;;;18.51;33.30;98981.00;5417913;26;20416;-44
2024/04/21 09:29:39;;;;;;;11.18;4.80;;;;;;;17.86;33.74;98986.91;5416047;26;20016;-44
2024/04/21 09:32:06;;;;;;;10.60;4.20;;;;;;;17.75;34.42;98981.41;5417881;26;20004;-44
2024/04/21 09:34:32;;;;;;;9.98;6.53;;;;;;;17.94;34.64;98974.03;5417646;26;20003;-43
2024/04/21 09:36:59;;;;;;;8.38;3.20;;;;;;;18.05;34.21;98968.88;5417376;26;20449;-44
2024/04/21 09:39:26;;;;;;;9.93;4.30;;;;;;;17.93;34.24;98969.78;5417777;26;20016;-44
2024/04/21 09:41:54;;;;;;;6.45;3.05;;;;;;;17.66;34.71;98966.91;5417553;26;20340;-44
2024/04/21 09:44:20;;;;;;;9.50;3.45;;;;;;;17.62;35.02;98967.63;5416044;26;20015;-44
2024/04/21 09:46:47;;;;;;;7.90;4.60;;;;;;;17.94;34.53;98968.72;5417532;26;20050;-43
2024/04/21 09:49:16;;;;;;;6.70;3.17;;;;;;;18.05;34.29;98956.44;5417540;26;20504;-44
2024/04/21 09:51:43;;;;;;;6.55;2.95;;;;;;;17.90;34.47;98958.84;5417606;26;20335;-43
2024/04/21 09:54:10;;;;;;;8.40;3.55;;;;;;;18.08;34.14;98960.44;5417610;26;20072;-44
2024/04/21 09:56:40;;;;;;;8.23;4.07;;;;;;;18.30;34.00;98961.31;5415709;26;20380;-44
2024/04/21 09:59:13;;;;;;;4.97;2.78;;;;;;;18.83;33.54;98948.47;5417478;26;20000;-44
2024/04/21 10:01:40;;;;;;;7.53;3.10;;;;;;;18.96;32.99;98957.94;5387132;26;20039;-44
2024/04/21 10:04:21;;;;;;;5.47;2.17;;;;;;;19.06;32.96;98957.25;5417369;26;20011;-44
2024/04/21 10:06:50;;;;;;;7.63;2.65;;;;;;;19.00;33.11;98947.63;5417357;26;20011;-44
2024/04/21 10:09:19;;;;;;;16.63;13.82;;;;;;;18.64;33.40;98963.09;5417361;26;20424;-44
2024/04/21 10:11:45;;;;;;;7.30;4.63;;;;;;;18.05;34.07;98953.78;5417214;26;20011;-43
2024/04/21 10:14:11;;;;;;;11.05;4.00;;;;;;;17.33;34.78;98954.41;5415358;26;20031;-43
2024/04/21 10:16:41;;;;;;;5.32;2.78;;;;;;;16.53;35.51;98943.50;5417084;26;20000;-43
2024/04/21 10:19:12;;;;;;;7.05;2.70;;;;;;;15.86;37.04;98948.38;5417181;26;20473;-46
2024/04/21 10:21:38;;;;;;;4.05;2.20;;;;;;;15.46;37.75;98951.56;5417063;26;20003;-45
2024/04/21 10:24:04;;;;;;;7.93;2.95;;;;;;;15.57;38.16;98942.84;5417118;26;20404;-45
2024/04/21 10:26:30;;;;;;;5.15;2.40;;;;;;;15.81;38.15;98950.88;5417040;26;20045;-45
2024/04/21 10:29:12;;;;;;;8.88;6.90;;;;;;;15.96;37.69;98953.91;5417003;26;20445;-45
2024/04/21 10:31:38;;;;;;;8.43;5.00;;;;;;;15.91;37.48;98943.19;5417076;26;20049;-45
2024/04/21 10:34:05;;;;;;;6.57;3.95;;;;;;;15.65;37.92;98945.16;5417017;26;20013;-45
2024/04/21 10:36:48;;;;;;;4.40;2.50;;;;;;;15.35;38.43;98943.38;5416636;26;20007;-45
2024/04/21 10:39:24;;;;;;;20.83;18.13;;;;;;;15.08;39.31;98936.84;5385665;26;20003;-46
2024/04/21 10:41:53;;;;;;;10.52;4.82;;;;;;;14.91;39.97;98948.03;5416801;26;20040;-46
2024/04/21 10:44:19;;;;;;;7.95;3.08;;;;;;;14.92;39.82;98940.88;5416036;26;19999;-45
2024/04/21 10:46:44;;;;;;;7.18;2.70;;;;;;;14.87;39.77;98935.44;5414698;26;20000;-46
2024/04/21 10:49:10;;;;;;;8.98;6.18;;;;;;;14.88;39.84;98937.06;5416820;26;20456;-45
2024/04/21 10:51:36;;;;;;;13.60;5.43;;;;;;;14.68;39.63;98938.09;5416680;26;20383;-45
2024/04/21 10:54:02;;;;;;;5.88;2.83;;;;;;;14.31;40.13;98937.28;5416615;26;20007;-45
2024/04/21 10:56:28;;;;;;;9.00;4.10;;;;;;;14.24;40.40;98936.50;5414849;26;20013;-45
2024/04/21 10:58:54;;;;;;;9.57;3.20;;;;;;;14.13;40.83;98933.56;5416522;26;19999;-45
2024/04/21 11:01:20;;;;;;;6.45;2.40;;;;;;;14.01;40.69;98930.03;5416531;26;20015;-45
2024/04/21 11:03:45;;;;;;;6.13;3.00;;;;;;;13.90;41.40;98939.44;5416570;26;20349;-45
2024/04/21 11:06:11;;;;;;;8.45;2.72;;;;;;;14.00;41.58;98931.03;5414660;26;20000;-45
2024/04/21 11:08:37;;;;;;;6.15;2.35;;;;;;;14.14;41.30;98929.88;5414737;26;19999;-44
2024/04/21 11:11:03;;;;;;;11.10;6.18;;;;;;;14.37;41.46;98915.28;5414628;26;20515;-45
2024/04/21 11:13:30;;;;;;;7.63;3.15;;;;;;;14.75;40.44;98912.44;5414626;26;20319;-45
2024/04/21 11:15:56;;;;;;;7.53;2.33;;;;;;;15.00;39.06;98910.72;5416401;26;20040;-45
2024/04/21 11:18:22;;;;;;;5.40;2.25;;;;;;;15.13;39.41;98899.94;5416387;26;20004;-45
2024/04/21 11:20:47;;;;;;;4.55;2.35;;;;;;;15.66;38.26;98898.38;5416213;26;20415;-45
2024/04/21 11:23:16;;;;;;;6.55;2.40;;;;;;;16.06;37.50;98884.50;5416208;26;20014;-45
2024/04/21 11:25:46;;;;;;;5.00;2.45;;;;;;;16.53;35.96;98874.63;5416040;26;20014;-45